sensor_id;sensor_type;location;lat;lon;timestamp;pressure;altitude;pressure_sealevel;temperature;humidity
5296;BME280;2670;42.720;23.336;2023-07-24T00:00:43;-18091.72;;;-145.34;59.20
5296;BME280;2670;42.720;23.336;2023-07-24T00:03:10;-18091.72;;;-145.34;58.97
5296;BME280;2670;42.720;23.336;2023-07-24T00:05:36;-18091.72;;;-145.34;58.02
5296;BME280;2670;42.720;23.336;2023-07-24T00:08:05;-18091.72;;;-145.34;58.75
5296;BME280;2670;42.720;23.336;2023-07-24T00:10:32;-18091.72;;;-145.34;59.19
5296;BME280;2670;42.720;23.336;2023-07-24T00:12:58;-18091.72;;;-145.34;58.87
5296;BME280;2670;42.720;23.336;2023-07-24T00:15:26;-18091.72;;;-145.34;59.09
5296;BME280;2670;42.720;23.336;2023-07-24T00:17:53;-18091.72;;;-145.34;59.18
5296;BME280;2670;42.720;23.336;2023-07-24T00:20:20;-18091.72;;;-145.34;59.89
5296;BME280;2670;42.720;23.336;2023-07-24T00:22:46;-18091.72;;;-145.34;58.09
5296;BME280;2670;42.720;23.336;2023-07-24T00:25:14;-18091.72;;;-145.34;58.08
5296;BME280;2670;42.720;23.336;2023-07-24T00:27:41;-18091.72;;;-145.34;58.81
5296;BME280;2670;42.720;23.336;2023-07-24T00:30:09;-18091.72;;;-145.34;59.07
5296;BME280;2670;42.720;23.336;2023-07-24T00:32:36;-18091.72;;;-145.34;59.46
5296;BME280;2670;42.720;23.336;2023-07-24T00:35:03;-18091.72;;;-145.34;58.81
5296;BME280;2670;42.720;23.336;2023-07-24T00:37:30;-18091.72;;;-145.34;59.13
5296;BME280;2670;42.720;23.336;2023-07-24T00:39:56;-18091.72;;;-145.34;58.47
5296;BME280;2670;42.720;23.336;2023-07-24T00:42:24;-18091.72;;;-145.34;58.50
5296;BME280;2670;42.720;23.336;2023-07-24T00:44:51;-18091.72;;;-145.34;59.05
5296;BME280;2670;42.720;23.336;2023-07-24T00:47:18;-18091.72;;;-145.34;58.73
5296;BME280;2670;42.720;23.336;2023-07-24T00:49:45;-18091.72;;;-145.34;57.94
5296;BME280;2670;42.720;23.336;2023-07-24T00:52:14;-18091.72;;;-145.34;57.71
5296;BME280;2670;42.720;23.336;2023-07-24T00:54:41;-18091.72;;;-145.34;57.87
5296;BME280;2670;42.720;23.336;2023-07-24T00:57:10;-18091.72;;;-145.34;57.53
5296;BME280;2670;42.720;23.336;2023-07-24T00:59:38;-18091.72;;;-145.34;57.34
5296;BME280;2670;42.720;23.336;2023-07-24T01:02:05;-18091.72;;;-145.34;58.07
5296;BME280;2670;42.720;23.336;2023-07-24T01:04:32;-18091.72;;;-145.34;58.11
5296;BME280;2670;42.720;23.336;2023-07-24T01:06:59;-18091.72;;;-145.34;57.38
5296;BME280;2670;42.720;23.336;2023-07-24T01:09:26;-18091.72;;;-145.34;58.39
5296;BME280;2670;42.720;23.336;2023-07-24T01:11:56;-18091.72;;;-145.34;59.01
5296;BME280;2670;42.720;23.336;2023-07-24T01:14:31;-18091.72;;;-145.34;59.40
5296;BME280;2670;42.720;23.336;2023-07-24T01:17:01;-18091.72;;;-145.34;59.26
5296;BME280;2670;42.720;23.336;2023-07-24T01:19:36;-18091.72;;;-145.34;59.77
5296;BME280;2670;42.720;23.336;2023-07-24T01:22:12;-18091.72;;;-145.34;60.51
5296;BME280;2670;42.720;23.336;2023-07-24T01:24:52;-18091.72;;;-145.34;60.04
5296;BME280;2670;42.720;23.336;2023-07-24T01:27:23;-18091.72;;;-145.34;60.87
5296;BME280;2670;42.720;23.336;2023-07-24T01:29:51;-18091.72;;;-145.34;61.20
5296;BME280;2670;42.720;23.336;2023-07-24T01:32:18;-18091.72;;;-145.34;61.58
5296;BME280;2670;42.720;23.336;2023-07-24T01:34:46;-18091.72;;;-145.34;62.03
5296;BME280;2670;42.720;23.336;2023-07-24T01:37:13;-18091.72;;;-145.34;61.95
5296;BME280;2670;42.720;23.336;2023-07-24T01:39:40;-18091.72;;;-145.34;62.31
5296;BME280;2670;42.720;23.336;2023-07-24T01:42:08;-18091.72;;;-145.34;62.72
5296;BME280;2670;42.720;23.336;2023-07-24T01:44:37;-18091.72;;;-145.34;61.23
5296;BME280;2670;42.720;23.336;2023-07-24T01:47:03;-18091.72;;;-145.34;61.89
5296;BME280;2670;42.720;23.336;2023-07-24T01:49:30;-18091.72;;;-145.34;61.23
5296;BME280;2670;42.720;23.336;2023-07-24T01:51:57;-18091.72;;;-145.34;62.15
5296;BME280;2670;42.720;23.336;2023-07-24T01:54:24;-18091.72;;;-145.34;61.73
5296;BME280;2670;42.720;23.336;2023-07-24T01:56:51;-18091.72;;;-145.34;61.91
5296;BME280;2670;42.720;23.336;2023-07-24T01:59:18;-18091.72;;;-145.34;62.38
5296;BME280;2670;42.720;23.336;2023-07-24T02:01:46;-18091.72;;;-145.34;62.58
5296;BME280;2670;42.720;23.336;2023-07-24T02:04:13;-18091.72;;;-145.34;62.40
5296;BME280;2670;42.720;23.336;2023-07-24T02:06:40;-18091.72;;;-145.34;63.08
5296;BME280;2670;42.720;23.336;2023-07-24T02:09:06;-18091.72;;;-145.34;63.65
5296;BME280;2670;42.720;23.336;2023-07-24T02:11:33;-18091.72;;;-145.34;63.94
5296;BME280;2670;42.720;23.336;2023-07-24T02:14:00;-18091.72;;;-145.34;63.81
5296;BME280;2670;42.720;23.336;2023-07-24T02:16:26;-18091.72;;;-145.34;63.71
5296;BME280;2670;42.720;23.336;2023-07-24T02:18:54;-18091.72;;;-145.34;62.52
5296;BME280;2670;42.720;23.336;2023-07-24T02:21:21;-18091.72;;;-145.34;62.24
5296;BME280;2670;42.720;23.336;2023-07-24T02:23:48;-18091.72;;;-145.34;61.81
5296;BME280;2670;42.720;23.336;2023-07-24T02:26:15;-18091.72;;;-145.34;63.19
5296;BME280;2670;42.720;23.336;2023-07-24T02:28:41;-18091.72;;;-145.34;63.12
5296;BME280;2670;42.720;23.336;2023-07-24T02:31:08;-18091.72;;;-145.34;63.14
5296;BME280;2670;42.720;23.336;2023-07-24T02:33:35;-18091.72;;;-145.34;63.20
5296;BME280;2670;42.720;23.336;2023-07-24T02:36:03;-18091.72;;;-145.34;62.72
5296;BME280;2670;42.720;23.336;2023-07-24T02:38:30;-18091.72;;;-145.34;62.76
5296;BME280;2670;42.720;23.336;2023-07-24T02:40:57;-18091.72;;;-145.34;63.18
5296;BME280;2670;42.720;23.336;2023-07-24T02:43:24;-18091.72;;;-145.34;62.84
5296;BME280;2670;42.720;23.336;2023-07-24T02:45:50;-18091.72;;;-145.34;62.94
5296;BME280;2670;42.720;23.336;2023-07-24T02:48:17;-18091.72;;;-145.34;63.35
5296;BME280;2670;42.720;23.336;2023-07-24T02:50:44;-18091.72;;;-145.34;63.30
5296;BME280;2670;42.720;23.336;2023-07-24T02:53:12;-18091.72;;;-145.34;63.53
5296;BME280;2670;42.720;23.336;2023-07-24T02:55:41;-18091.72;;;-145.34;64.16
5296;BME280;2670;42.720;23.336;2023-07-24T02:58:08;-18091.72;;;-145.34;63.17
5296;BME280;2670;42.720;23.336;2023-07-24T03:00:38;-18091.72;;;-145.34;63.36
5296;BME280;2670;42.720;23.336;2023-07-24T03:03:05;-18091.72;;;-145.34;63.80
5296;BME280;2670;42.720;23.336;2023-07-24T03:05:33;-18091.72;;;-145.34;63.82
5296;BME280;2670;42.720;23.336;2023-07-24T03:08:00;-18091.72;;;-145.34;64.37
5296;BME280;2670;42.720;23.336;2023-07-24T03:10:28;-18091.72;;;-145.34;63.44
5296;BME280;2670;42.720;23.336;2023-07-24T03:12:55;-18091.72;;;-145.34;63.62
5296;BME280;2670;42.720;23.336;2023-07-24T03:15:22;-18091.72;;;-145.34;63.40
5296;BME280;2670;42.720;23.336;2023-07-24T03:17:49;-18091.72;;;-145.34;64.15
5296;BME280;2670;42.720;23.336;2023-07-24T03:20:17;-18091.72;;;-145.34;64.18
5296;BME280;2670;42.720;23.336;2023-07-24T03:22:44;-18091.72;;;-145.34;63.71
5296;BME280;2670;42.720;23.336;2023-07-24T03:25:11;-18091.72;;;-145.34;65.37
5296;BME280;2670;42.720;23.336;2023-07-24T03:27:39;-18091.72;;;-145.34;66.13
5296;BME280;2670;42.720;23.336;2023-07-24T03:30:07;-18091.72;;;-145.34;66.11
5296;BME280;2670;42.720;23.336;2023-07-24T03:32:35;-18091.72;;;-145.34;66.21
5296;BME280;2670;42.720;23.336;2023-07-24T03:35:02;-18091.72;;;-145.34;66.07
5296;BME280;2670;42.720;23.336;2023-07-24T03:37:29;-18091.72;;;-145.34;64.98
5296;BME280;2670;42.720;23.336;2023-07-24T03:39:55;-18091.72;;;-145.34;64.98
5296;BME280;2670;42.720;23.336;2023-07-24T03:42:26;-18091.72;;;-145.34;65.27
5296;BME280;2670;42.720;23.336;2023-07-24T03:44:54;-18091.72;;;-145.34;65.08
5296;BME280;2670;42.720;23.336;2023-07-24T03:47:21;-18091.72;;;-145.34;65.79
5296;BME280;2670;42.720;23.336;2023-07-24T03:49:49;-18091.72;;;-145.34;66.07
5296;BME280;2670;42.720;23.336;2023-07-24T03:52:16;-18091.72;;;-145.34;65.79
5296;BME280;2670;42.720;23.336;2023-07-24T03:54:42;-18091.72;;;-145.34;65.62
5296;BME280;2670;42.720;23.336;2023-07-24T03:57:09;-18091.72;;;-145.34;66.33
5296;BME280;2670;42.720;23.336;2023-07-24T03:59:36;-18091.72;;;-145.34;66.38
5296;BME280;2670;42.720;23.336;2023-07-24T04:02:04;-18091.72;;;-145.34;66.70
5296;BME280;2670;42.720;23.336;2023-07-24T04:04:32;-18091.72;;;-145.34;66.75
5296;BME280;2670;42.720;23.336;2023-07-24T04:06:59;-18091.72;;;-145.34;66.67
5296;BME280;2670;42.720;23.336;2023-07-24T04:09:26;-18091.72;;;-145.34;66.57
5296;BME280;2670;42.720;23.336;2023-07-24T04:11:52;-18091.72;;;-145.34;66.56
5296;BME280;2670;42.720;23.336;2023-07-24T04:14:19;-18091.72;;;-145.34;67.08
5296;BME280;2670;42.720;23.336;2023-07-24T04:16:46;-18091.72;;;-145.34;67.06
5296;BME280;2670;42.720;23.336;2023-07-24T04:19:14;-18091.72;;;-145.34;67.12
5296;BME280;2670;42.720;23.336;2023-07-24T04:21:41;-18091.72;;;-145.34;65.80
5296;BME280;2670;42.720;23.336;2023-07-24T04:24:08;-18091.72;;;-145.34;66.17
5296;BME280;2670;42.720;23.336;2023-07-24T04:26:35;-18091.72;;;-145.34;65.71
5296;BME280;2670;42.720;23.336;2023-07-24T04:29:02;-18091.72;;;-145.34;66.63
5296;BME280;2670;42.720;23.336;2023-07-24T04:31:35;-18091.72;;;-145.34;67.33
5296;BME280;2670;42.720;23.336;2023-07-24T04:34:09;-18091.72;;;-145.34;67.34
5296;BME280;2670;42.720;23.336;2023-07-24T04:36:38;-18091.72;;;-145.34;67.59
5296;BME280;2670;42.720;23.336;2023-07-24T04:39:05;-18091.72;;;-145.34;67.44
5296;BME280;2670;42.720;23.336;2023-07-24T04:41:32;-18091.72;;;-145.34;66.45
5296;BME280;2670;42.720;23.336;2023-07-24T04:43:58;-18091.72;;;-145.34;66.25
5296;BME280;2670;42.720;23.336;2023-07-24T04:46:25;-18091.72;;;-145.34;66.77
5296;BME280;2670;42.720;23.336;2023-07-24T04:48:52;-18091.72;;;-145.34;66.96
5296;BME280;2670;42.720;23.336;2023-07-24T04:51:18;-18091.72;;;-145.34;66.91
5296;BME280;2670;42.720;23.336;2023-07-24T04:53:46;-18091.72;;;-145.34;66.20
5296;BME280;2670;42.720;23.336;2023-07-24T04:56:13;-18091.72;;;-145.34;66.51
5296;BME280;2670;42.720;23.336;2023-07-24T04:58:40;-18091.72;;;-145.34;67.22
5296;BME280;2670;42.720;23.336;2023-07-24T05:01:06;-18091.72;;;-145.34;67.00
5296;BME280;2670;42.720;23.336;2023-07-24T05:03:34;-18091.72;;;-145.34;66.87
5296;BME280;2670;42.720;23.336;2023-07-24T05:06:01;-18091.72;;;-145.34;67.55
5296;BME280;2670;42.720;23.336;2023-07-24T05:08:28;-18091.72;;;-145.34;66.86
5296;BME280;2670;42.720;23.336;2023-07-24T05:10:56;-18091.72;;;-145.34;67.26
5296;BME280;2670;42.720;23.336;2023-07-24T05:13:22;-18091.72;;;-145.34;67.79
5296;BME280;2670;42.720;23.336;2023-07-24T05:15:49;-18091.72;;;-145.34;67.97
5296;BME280;2670;42.720;23.336;2023-07-24T05:18:16;-18091.72;;;-145.34;67.41
5296;BME280;2670;42.720;23.336;2023-07-24T05:20:44;-18091.72;;;-145.34;67.58
5296;BME280;2670;42.720;23.336;2023-07-24T05:23:11;-18091.72;;;-145.34;68.64
5296;BME280;2670;42.720;23.336;2023-07-24T05:25:38;-18091.72;;;-145.34;67.34
5296;BME280;2670;42.720;23.336;2023-07-24T05:28:06;-18091.72;;;-145.34;67.86
5296;BME280;2670;42.720;23.336;2023-07-24T05:30:33;-18091.72;;;-145.34;67.72
5296;BME280;2670;42.720;23.336;2023-07-24T05:33:00;-18091.72;;;-145.34;68.03
5296;BME280;2670;42.720;23.336;2023-07-24T05:35:27;-18091.72;;;-145.34;68.29
5296;BME280;2670;42.720;23.336;2023-07-24T05:37:53;-18091.72;;;-145.34;67.48
5296;BME280;2670;42.720;23.336;2023-07-24T05:40:20;-18091.72;;;-145.34;68.57
5296;BME280;2670;42.720;23.336;2023-07-24T05:42:47;-18091.72;;;-145.34;68.89
5296;BME280;2670;42.720;23.336;2023-07-24T05:45:15;-18091.72;;;-145.34;67.31
5296;BME280;2670;42.720;23.336;2023-07-24T05:47:42;-18091.72;;;-145.34;67.28
5296;BME280;2670;42.720;23.336;2023-07-24T05:50:09;-18091.72;;;-145.34;68.25
5296;BME280;2670;42.720;23.336;2023-07-24T05:52:38;-18091.72;;;-145.34;68.04
5296;BME280;2670;42.720;23.336;2023-07-24T05:55:06;-18091.72;;;-145.34;66.42
5296;BME280;2670;42.720;23.336;2023-07-24T05:57:33;-18091.72;;;-145.34;66.72
5296;BME280;2670;42.720;23.336;2023-07-24T05:59:59;-18091.72;;;-145.34;67.56
5296;BME280;2670;42.720;23.336;2023-07-24T06:02:27;-18091.72;;;-145.34;65.54
5296;BME280;2670;42.720;23.336;2023-07-24T06:04:54;-18091.72;;;-145.34;65.41
5296;BME280;2670;42.720;23.336;2023-07-24T06:07:21;-18091.72;;;-145.34;65.59
5296;BME280;2670;42.720;23.336;2023-07-24T06:09:47;-18091.72;;;-145.34;64.86
5296;BME280;2670;42.720;23.336;2023-07-24T06:12:14;-18091.72;;;-145.34;64.67
5296;BME280;2670;42.720;23.336;2023-07-24T06:14:41;-18091.72;;;-145.34;64.81
5296;BME280;2670;42.720;23.336;2023-07-24T06:17:08;-18091.72;;;-145.34;62.98
5296;BME280;2670;42.720;23.336;2023-07-24T06:19:36;-18091.72;;;-145.34;62.76
5296;BME280;2670;42.720;23.336;2023-07-24T06:22:03;-18091.72;;;-145.34;63.06
5296;BME280;2670;42.720;23.336;2023-07-24T06:24:30;-18091.72;;;-145.34;63.06
5296;BME280;2670;42.720;23.336;2023-07-24T06:26:56;-18091.72;;;-145.34;62.76
5296;BME280;2670;42.720;23.336;2023-07-24T06:29:23;-18091.72;;;-145.34;62.20
5296;BME280;2670;42.720;23.336;2023-07-24T06:31:51;-18091.72;;;-145.34;63.12
5296;BME280;2670;42.720;23.336;2023-07-24T06:34:17;-18091.72;;;-145.34;63.44
5296;BME280;2670;42.720;23.336;2023-07-24T06:36:45;-18091.72;;;-145.34;63.15
5296;BME280;2670;42.720;23.336;2023-07-24T06:39:12;-18091.72;;;-145.34;63.25
5296;BME280;2670;42.720;23.336;2023-07-24T06:41:39;-18091.72;;;-145.34;62.21
5296;BME280;2670;42.720;23.336;2023-07-24T06:44:06;-18091.72;;;-145.34;61.95
5296;BME280;2670;42.720;23.336;2023-07-24T06:46:32;-18091.72;;;-145.34;62.45
5296;BME280;2670;42.720;23.336;2023-07-24T06:48:59;-18091.72;;;-145.34;61.29
5296;BME280;2670;42.720;23.336;2023-07-24T06:51:26;-18091.72;;;-145.34;62.72
5296;BME280;2670;42.720;23.336;2023-07-24T06:53:54;-18091.72;;;-145.34;60.99
5296;BME280;2670;42.720;23.336;2023-07-24T06:56:20;-18091.72;;;-145.34;61.67
5296;BME280;2670;42.720;23.336;2023-07-24T06:58:47;-18091.72;;;-145.34;61.35
5296;BME280;2670;42.720;23.336;2023-07-24T07:01:14;-18091.72;;;-145.34;60.11
5296;BME280;2670;42.720;23.336;2023-07-24T07:03:40;-18091.72;;;-145.34;60.36
5296;BME280;2670;42.720;23.336;2023-07-24T07:06:07;-18091.72;;;-145.34;61.06
5296;BME280;2670;42.720;23.336;2023-07-24T07:08:38;-18091.72;;;-145.34;61.38
5296;BME280;2670;42.720;23.336;2023-07-24T07:11:06;-18091.72;;;-145.34;60.32
5296;BME280;2670;42.720;23.336;2023-07-24T07:13:33;-18091.72;;;-145.34;61.77
5296;BME280;2670;42.720;23.336;2023-07-24T07:15:59;-18091.72;;;-145.34;60.76
5296;BME280;2670;42.720;23.336;2023-07-24T07:18:26;-18091.72;;;-145.34;59.18
5296;BME280;2670;42.720;23.336;2023-07-24T07:20:53;-18091.72;;;-145.34;60.09
5296;BME280;2670;42.720;23.336;2023-07-24T07:23:20;-18091.72;;;-145.34;59.70
5296;BME280;2670;42.720;23.336;2023-07-24T07:25:47;-18091.72;;;-145.34;59.75
5296;BME280;2670;42.720;23.336;2023-07-24T07:28:17;-18091.72;;;-145.34;59.10
5296;BME280;2670;42.720;23.336;2023-07-24T07:30:44;-18091.72;;;-145.34;58.48
5296;BME280;2670;42.720;23.336;2023-07-24T07:33:11;-18091.72;;;-145.34;56.85
5296;BME280;2670;42.720;23.336;2023-07-24T07:35:38;-18091.72;;;-145.34;57.85
5296;BME280;2670;42.720;23.336;2023-07-24T07:38:04;-18091.72;;;-145.34;55.88
5296;BME280;2670;42.720;23.336;2023-07-24T07:40:31;-18091.72;;;-145.34;54.44
5296;BME280;2670;42.720;23.336;2023-07-24T07:42:58;-18091.72;;;-145.34;55.59
5296;BME280;2670;42.720;23.336;2023-07-24T07:45:26;-18091.72;;;-145.34;56.24
5296;BME280;2670;42.720;23.336;2023-07-24T07:47:52;-18091.72;;;-145.34;56.17
5296;BME280;2670;42.720;23.336;2023-07-24T07:50:19;-18091.72;;;-145.34;56.98
5296;BME280;2670;42.720;23.336;2023-07-24T07:52:49;-18091.72;;;-145.34;55.58
5296;BME280;2670;42.720;23.336;2023-07-24T07:55:16;-18091.72;;;-145.34;54.36
5296;BME280;2670;42.720;23.336;2023-07-24T07:57:42;-18091.72;;;-145.34;55.49
5296;BME280;2670;42.720;23.336;2023-07-24T08:00:10;-18091.72;;;-145.34;54.78
5296;BME280;2670;42.720;23.336;2023-07-24T08:02:38;-18091.72;;;-145.34;53.60
5296;BME280;2670;42.720;23.336;2023-07-24T08:05:07;-18091.72;;;-145.34;55.35
5296;BME280;2670;42.720;23.336;2023-07-24T08:07:34;-18091.72;;;-145.34;51.11
5296;BME280;2670;42.720;23.336;2023-07-24T08:10:00;-18091.72;;;-145.34;50.49
5296;BME280;2670;42.720;23.336;2023-07-24T08:12:27;-18091.72;;;-145.34;51.18
5296;BME280;2670;42.720;23.336;2023-07-24T08:14:54;-18091.72;;;-145.34;50.11
5296;BME280;2670;42.720;23.336;2023-07-24T08:17:20;-18091.72;;;-145.34;49.98
5296;BME280;2670;42.720;23.336;2023-07-24T08:19:48;-18091.72;;;-145.34;51.16
5296;BME280;2670;42.720;23.336;2023-07-24T08:22:15;-18091.72;;;-145.34;51.79
5296;BME280;2670;42.720;23.336;2023-07-24T08:24:42;-18091.72;;;-145.34;50.42
5296;BME280;2670;42.720;23.336;2023-07-24T08:27:10;-18091.72;;;-145.34;49.93
5296;BME280;2670;42.720;23.336;2023-07-24T08:29:36;-18091.72;;;-145.34;47.94
5296;BME280;2670;42.720;23.336;2023-07-24T08:32:04;-18091.72;;;-145.34;48.65
5296;BME280;2670;42.720;23.336;2023-07-24T08:34:31;-18091.72;;;-145.34;49.08
5296;BME280;2670;42.720;23.336;2023-07-24T08:36:59;-18091.72;;;-145.34;48.56
5296;BME280;2670;42.720;23.336;2023-07-24T08:39:25;-18091.72;;;-145.34;48.37
5296;BME280;2670;42.720;23.336;2023-07-24T08:41:52;-18091.72;;;-145.34;49.31
5296;BME280;2670;42.720;23.336;2023-07-24T08:44:19;-18091.72;;;-145.34;50.18
5296;BME280;2670;42.720;23.336;2023-07-24T08:46:47;-18091.72;;;-145.34;48.01
5296;BME280;2670;42.720;23.336;2023-07-24T08:49:16;-18091.72;;;-145.34;45.93
5296;BME280;2670;42.720;23.336;2023-07-24T08:51:43;-18091.72;;;-145.34;45.70
5296;BME280;2670;42.720;23.336;2023-07-24T08:54:12;-18091.72;;;-145.34;46.07
5296;BME280;2670;42.720;23.336;2023-07-24T08:56:39;-18091.72;;;-145.34;46.48
5296;BME280;2670;42.720;23.336;2023-07-24T08:59:07;-18091.72;;;-145.34;46.99
5296;BME280;2670;42.720;23.336;2023-07-24T09:01:33;-18091.72;;;-145.34;47.43
5296;BME280;2670;42.720;23.336;2023-07-24T09:04:00;-18091.72;;;-145.34;47.47
5296;BME280;2670;42.720;23.336;2023-07-24T09:06:27;-18091.72;;;-145.34;45.82
5296;BME280;2670;42.720;23.336;2023-07-24T09:08:54;-18091.72;;;-145.34;45.42
5296;BME280;2670;42.720;23.336;2023-07-24T09:11:22;-18091.72;;;-145.34;44.24
5296;BME280;2670;42.720;23.336;2023-07-24T09:13:49;-18091.72;;;-145.34;44.47
5296;BME280;2670;42.720;23.336;2023-07-24T09:16:22;-18091.72;;;-145.34;44.76
5296;BME280;2670;42.720;23.336;2023-07-24T09:18:50;-18091.72;;;-145.34;45.52
5296;BME280;2670;42.720;23.336;2023-07-24T09:21:27;-18091.72;;;-145.34;42.26
5296;BME280;2670;42.720;23.336;2023-07-24T09:23:54;-18091.72;;;-145.34;42.29
5296;BME280;2670;42.720;23.336;2023-07-24T09:26:22;-18091.72;;;-145.34;43.66
5296;BME280;2670;42.720;23.336;2023-07-24T09:28:52;-18091.72;;;-145.34;43.10
5296;BME280;2670;42.720;23.336;2023-07-24T09:31:19;-18091.72;;;-145.34;41.96
5296;BME280;2670;42.720;23.336;2023-07-24T09:33:46;-18091.72;;;-145.34;44.02
5296;BME280;2670;42.720;23.336;2023-07-24T09:36:13;-18091.72;;;-145.34;41.88
5296;BME280;2670;42.720;23.336;2023-07-24T09:38:40;-18091.72;;;-145.34;43.16
5296;BME280;2670;42.720;23.336;2023-07-24T09:41:07;-18091.72;;;-145.34;41.74
5296;BME280;2670;42.720;23.336;2023-07-24T09:43:35;-18091.72;;;-145.34;40.45
5296;BME280;2670;42.720;23.336;2023-07-24T09:46:04;-18091.72;;;-145.34;40.04
5296;BME280;2670;42.720;23.336;2023-07-24T09:48:31;-18091.72;;;-145.34;41.23
5296;BME280;2670;42.720;23.336;2023-07-24T09:50:59;-18091.72;;;-145.34;39.25
5296;BME280;2670;42.720;23.336;2023-07-24T09:53:32;-18091.72;;;-145.34;39.67
5296;BME280;2670;42.720;23.336;2023-07-24T09:56:02;-18091.72;;;-145.34;39.82
5296;BME280;2670;42.720;23.336;2023-07-24T09:58:30;-18091.72;;;-145.34;39.48
5296;BME280;2670;42.720;23.336;2023-07-24T10:01:00;-18091.72;;;-145.34;39.17
5296;BME280;2670;42.720;23.336;2023-07-24T10:03:28;-18091.72;;;-145.34;39.79
5296;BME280;2670;42.720;23.336;2023-07-24T10:05:55;-18091.72;;;-145.34;39.34
5296;BME280;2670;42.720;23.336;2023-07-24T10:08:22;-18091.72;;;-145.34;37.35
5296;BME280;2670;42.720;23.336;2023-07-24T10:10:50;-18091.72;;;-145.34;38.57
5296;BME280;2670;42.720;23.336;2023-07-24T10:13:19;-18091.72;;;-145.34;38.07
5296;BME280;2670;42.720;23.336;2023-07-24T10:15:48;-18091.72;;;-145.34;37.69
5296;BME280;2670;42.720;23.336;2023-07-24T10:18:16;-18091.72;;;-145.34;37.09
5296;BME280;2670;42.720;23.336;2023-07-24T10:20:44;-18091.72;;;-145.34;37.45
5296;BME280;2670;42.720;23.336;2023-07-24T10:23:15;-18091.72;;;-145.34;38.91
5296;BME280;2670;42.720;23.336;2023-07-24T10:25:45;-18091.72;;;-145.34;38.00
5296;BME280;2670;42.720;23.336;2023-07-24T10:28:12;-18091.72;;;-145.34;37.36
5296;BME280;2670;42.720;23.336;2023-07-24T10:30:42;-18091.72;;;-145.34;37.49
5296;BME280;2670;42.720;23.336;2023-07-24T10:33:10;-18091.72;;;-145.34;37.09
5296;BME280;2670;42.720;23.336;2023-07-24T10:35:39;-18091.72;;;-145.34;37.11
5296;BME280;2670;42.720;23.336;2023-07-24T10:38:07;-18091.72;;;-145.34;36.82
5296;BME280;2670;42.720;23.336;2023-07-24T10:40:34;-18091.72;;;-145.34;36.98
5296;BME280;2670;42.720;23.336;2023-07-24T10:43:03;-18091.72;;;-145.34;36.81
5296;BME280;2670;42.720;23.336;2023-07-24T10:45:49;-18091.72;;;-145.34;36.10
5296;BME280;2670;42.720;23.336;2023-07-24T10:48:17;-18091.72;;;-145.34;38.06
5296;BME280;2670;42.720;23.336;2023-07-24T10:50:47;-18091.72;;;-145.34;36.49
5296;BME280;2670;42.720;23.336;2023-07-24T10:53:15;-18091.72;;;-145.34;37.42
5296;BME280;2670;42.720;23.336;2023-07-24T10:55:42;-18091.72;;;-145.34;36.97
5296;BME280;2670;42.720;23.336;2023-07-24T10:58:10;-18091.72;;;-145.34;36.19
5296;BME280;2670;42.720;23.336;2023-07-24T11:00:38;-18091.72;;;-145.34;36.76
5296;BME280;2670;42.720;23.336;2023-07-24T11:03:08;-18091.72;;;-145.34;36.16
5296;BME280;2670;42.720;23.336;2023-07-24T11:05:39;-18091.72;;;-145.34;37.35
5296;BME280;2670;42.720;23.336;2023-07-24T11:08:10;-18091.72;;;-145.34;36.32
5296;BME280;2670;42.720;23.336;2023-07-24T11:10:44;-18091.72;;;-145.34;36.70
5296;BME280;2670;42.720;23.336;2023-07-24T11:13:11;-18091.72;;;-145.34;37.80
5296;BME280;2670;42.720;23.336;2023-07-24T11:15:38;-18091.72;;;-145.34;36.26
5296;BME280;2670;42.720;23.336;2023-07-24T11:18:05;-18091.72;;;-145.34;35.35
5296;BME280;2670;42.720;23.336;2023-07-24T11:20:37;-18091.72;;;-145.34;36.15
5296;BME280;2670;42.720;23.336;2023-07-24T11:23:04;-18091.72;;;-145.34;34.13
5296;BME280;2670;42.720;23.336;2023-07-24T11:25:32;-18091.72;;;-145.34;34.97
5296;BME280;2670;42.720;23.336;2023-07-24T11:27:59;-18091.72;;;-145.34;34.39
5296;BME280;2670;42.720;23.336;2023-07-24T11:30:27;-18091.72;;;-145.34;34.37
5296;BME280;2670;42.720;23.336;2023-07-24T11:32:54;-18091.72;;;-145.34;35.03
5296;BME280;2670;42.720;23.336;2023-07-24T11:35:24;-18091.72;;;-145.34;34.49
5296;BME280;2670;42.720;23.336;2023-07-24T11:37:51;-18091.72;;;-145.34;35.11
5296;BME280;2670;42.720;23.336;2023-07-24T11:40:18;-18091.72;;;-145.34;35.84
5296;BME280;2670;42.720;23.336;2023-07-24T11:42:48;-18091.72;;;-145.34;35.41
5296;BME280;2670;42.720;23.336;2023-07-24T11:45:15;-18091.72;;;-145.34;35.07
5296;BME280;2670;42.720;23.336;2023-07-24T11:47:46;-18091.72;;;-145.34;35.68
5296;BME280;2670;42.720;23.336;2023-07-24T11:50:14;-18091.72;;;-145.34;35.27
5296;BME280;2670;42.720;23.336;2023-07-24T11:52:42;-18091.72;;;-145.34;35.40
5296;BME280;2670;42.720;23.336;2023-07-24T11:55:10;-18091.72;;;-145.34;34.96
5296;BME280;2670;42.720;23.336;2023-07-24T11:57:37;-18091.72;;;-145.34;34.76
5296;BME280;2670;42.720;23.336;2023-07-24T12:00:17;-18091.72;;;-145.34;34.13
5296;BME280;2670;42.720;23.336;2023-07-24T12:02:45;-18091.72;;;-145.34;35.20
5296;BME280;2670;42.720;23.336;2023-07-24T12:05:11;-18091.72;;;-145.34;34.25
5296;BME280;2670;42.720;23.336;2023-07-24T12:07:38;-18091.72;;;-145.34;35.20
5296;BME280;2670;42.720;23.336;2023-07-24T12:10:06;-18091.72;;;-145.34;34.73
5296;BME280;2670;42.720;23.336;2023-07-24T12:12:37;-18091.72;;;-145.34;34.85
5296;BME280;2670;42.720;23.336;2023-07-24T12:15:07;-18091.72;;;-145.34;34.29
5296;BME280;2670;42.720;23.336;2023-07-24T12:17:34;-18091.72;;;-145.34;34.99
5296;BME280;2670;42.720;23.336;2023-07-24T12:20:00;-18091.72;;;-145.34;34.96
5296;BME280;2670;42.720;23.336;2023-07-24T12:22:27;-18091.72;;;-145.34;34.26
5296;BME280;2670;42.720;23.336;2023-07-24T12:24:54;-18091.72;;;-145.34;34.65
5296;BME280;2670;42.720;23.336;2023-07-24T12:27:21;-18091.72;;;-145.34;34.56
5296;BME280;2670;42.720;23.336;2023-07-24T12:29:48;-18091.72;;;-145.34;33.85
5296;BME280;2670;42.720;23.336;2023-07-24T12:32:16;-18091.72;;;-145.34;33.51
5296;BME280;2670;42.720;23.336;2023-07-24T12:34:44;-18091.72;;;-145.34;33.86
5296;BME280;2670;42.720;23.336;2023-07-24T12:37:10;-18091.72;;;-145.34;33.60
5296;BME280;2670;42.720;23.336;2023-07-24T12:39:37;-18091.72;;;-145.34;34.05
5296;BME280;2670;42.720;23.336;2023-07-24T12:42:04;-18091.72;;;-145.34;33.95